createdAt,value
2022-10-17T00:01:30.336Z,22.92
2022-10-17T00:03:56.903Z,22.92
2022-10-17T00:06:23.587Z,22.92
2022-10-17T00:08:50.188Z,22.92
2022-10-17T00:11:22.928Z,22.90
2022-10-17T00:13:51.203Z,22.91
2022-10-17T00:16:30.482Z,22.92
2022-10-17T00:18:57.386Z,22.89
2022-10-17T00:21:25.629Z,22.89
2022-10-17T00:23:52.978Z,22.90
2022-10-17T00:26:20.843Z,22.91
2022-10-17T00:28:48.799Z,22.90
2022-10-17T00:31:17.690Z,22.89
2022-10-17T00:33:44.427Z,22.90
2022-10-17T00:36:17.604Z,22.89
2022-10-17T00:38:46.025Z,22.87
2022-10-17T00:41:15.760Z,22.90
2022-10-17T00:44:04.802Z,22.92
2022-10-17T00:46:36.783Z,22.92
2022-10-17T00:49:12.496Z,22.92
2022-10-17T00:51:57.633Z,22.89
2022-10-17T00:54:28.851Z,22.88
2022-10-17T00:56:55.749Z,22.87
2022-10-17T00:59:24.814Z,22.89
2022-10-17T01:02:01.100Z,22.89
2022-10-17T01:04:27.747Z,22.88
2022-10-17T01:06:54.306Z,22.91
2022-10-17T01:09:20.970Z,22.88
2022-10-17T01:11:57.215Z,22.90
2022-10-17T01:14:35.842Z,22.89
2022-10-17T01:17:16.065Z,22.89
2022-10-17T01:20:33.523Z,22.87
2022-10-17T01:23:31.323Z,22.82
2022-10-17T01:26:20.836Z,22.83
2022-10-17T01:29:06.102Z,22.85
2022-10-17T01:31:40.768Z,22.83
2022-10-17T01:34:31.084Z,22.80
2022-10-17T01:37:14.775Z,22.78
2022-10-17T01:40:12.617Z,22.77
2022-10-17T01:42:56.977Z,22.73
2022-10-17T01:45:35.400Z,22.70
2022-10-17T01:48:07.502Z,22.72
2022-10-17T01:50:42.442Z,22.71
2022-10-17T01:53:16.558Z,22.71
2022-10-17T01:55:46.141Z,22.69
2022-10-17T01:58:20.856Z,22.68
2022-10-17T02:00:49.450Z,22.69
2022-10-17T02:03:19.904Z,22.69
2022-10-17T02:05:47.074Z,22.67
2022-10-17T02:08:14.113Z,22.67
2022-10-17T02:10:52.723Z,22.67
2022-10-17T02:13:38.920Z,22.65
2022-10-17T02:16:17.200Z,22.64
2022-10-17T02:18:58.989Z,22.65
2022-10-17T02:21:53.911Z,22.63
2022-10-17T02:24:30.969Z,22.64
2022-10-17T02:27:06.745Z,22.63
2022-10-17T02:29:57.041Z,22.64
2022-10-17T02:32:53.044Z,22.65
2022-10-17T02:35:22.351Z,22.67
2022-10-17T02:37:51.089Z,22.64
2022-10-17T02:40:21.264Z,22.62
2022-10-17T02:42:49.892Z,22.61
2022-10-17T02:45:16.974Z,22.61
2022-10-17T02:47:54.043Z,22.61
2022-10-17T02:50:33.607Z,22.60
2022-10-17T02:53:08.924Z,22.63
2022-10-17T02:55:53.496Z,22.60
2022-10-17T02:58:25.471Z,22.59
2022-10-17T03:00:53.284Z,22.58
2022-10-17T03:03:26.713Z,22.58
2022-10-17T03:05:54.025Z,22.54
2022-10-17T03:08:21.900Z,22.55
2022-10-17T03:10:48.512Z,22.55
2022-10-17T03:13:15.990Z,22.55
2022-10-17T03:15:42.796Z,22.59
2022-10-17T03:18:09.623Z,22.55
2022-10-17T03:20:36.181Z,22.57
2022-10-17T03:23:03.000Z,22.54
2022-10-17T03:25:29.851Z,22.52
2022-10-17T03:28:00.351Z,22.55
2022-10-17T03:30:27.590Z,22.54
2022-10-17T03:32:54.324Z,22.52
2022-10-17T03:35:20.910Z,22.52
2022-10-17T03:37:47.490Z,22.48
2022-10-17T03:40:14.146Z,22.50
2022-10-17T03:42:40.735Z,22.50
2022-10-17T03:45:07.632Z,22.50
2022-10-17T03:47:34.199Z,22.51
2022-10-17T03:50:00.796Z,22.50
2022-10-17T03:52:27.353Z,22.50
2022-10-17T03:54:53.893Z,22.52
2022-10-17T03:57:20.521Z,22.54
2022-10-17T03:59:47.085Z,22.47
2022-10-17T04:02:13.650Z,22.49
2022-10-17T04:04:40.224Z,22.49
2022-10-17T04:07:07.051Z,22.50
2022-10-17T04:09:33.640Z,22.48
2022-10-17T04:12:00.370Z,22.47
2022-10-17T04:14:26.932Z,22.48
2022-10-17T04:16:53.622Z,22.46
2022-10-17T04:19:20.267Z,22.47
2022-10-17T04:21:46.912Z,22.48
2022-10-17T04:24:13.506Z,22.44
2022-10-17T04:26:40.102Z,22.42
2022-10-17T04:29:06.714Z,22.42
2022-10-17T04:31:33.275Z,22.43
2022-10-17T04:33:59.827Z,22.43
2022-10-17T04:36:26.403Z,22.44
2022-10-17T04:38:52.982Z,22.41
2022-10-17T04:41:20.796Z,22.45
2022-10-17T04:43:50.988Z,22.46
2022-10-17T04:46:18.299Z,22.42
2022-10-17T04:48:45.019Z,22.43
2022-10-17T04:51:14.927Z,22.42
2022-10-17T04:53:42.964Z,22.43
2022-10-17T04:56:21.377Z,22.44
2022-10-17T04:58:48.555Z,22.43
2022-10-17T05:01:17.876Z,22.43
2022-10-17T05:03:45.347Z,22.42
2022-10-17T05:06:20.911Z,22.45
2022-10-17T05:08:48.077Z,22.44
2022-10-17T05:11:26.214Z,22.46
2022-10-17T05:13:54.513Z,22.44
2022-10-17T05:16:21.879Z,22.45
2022-10-17T05:18:52.912Z,22.44
2022-10-17T05:21:20.794Z,22.44
2022-10-17T05:23:47.526Z,22.43
2022-10-17T05:26:14.749Z,22.42
2022-10-17T05:28:41.776Z,22.43
2022-10-17T05:31:10.544Z,22.42
2022-10-17T05:33:38.244Z,22.45
2022-10-17T05:36:05.281Z,22.44
2022-10-17T05:38:32.507Z,22.43
2022-10-17T05:41:00.787Z,22.46
2022-10-17T05:43:27.981Z,22.43
2022-10-17T05:45:55.204Z,22.46
2022-10-17T05:48:22.742Z,22.46
2022-10-17T05:50:49.410Z,22.46
2022-10-17T05:53:17.123Z,22.47
2022-10-17T05:55:43.689Z,22.48
2022-10-17T05:58:17.634Z,22.47
2022-10-17T06:00:48.944Z,22.48
2022-10-17T06:03:15.531Z,22.47
2022-10-17T06:05:42.248Z,22.48
2022-10-17T06:08:08.825Z,22.50
2022-10-17T06:10:35.464Z,22.52
2022-10-17T06:13:02.087Z,22.53
2022-10-17T06:15:28.667Z,22.51
2022-10-17T06:17:55.253Z,22.53
2022-10-17T06:20:21.866Z,22.55
2022-10-17T06:22:48.463Z,22.52
2022-10-17T06:25:15.114Z,22.49
2022-10-17T06:27:41.757Z,22.46
2022-10-17T06:30:08.809Z,22.46
2022-10-17T06:32:35.372Z,22.45
2022-10-17T06:35:01.915Z,22.45
2022-10-17T06:37:35.569Z,22.47
2022-10-17T06:40:04.128Z,22.48
2022-10-17T06:42:30.700Z,22.50
2022-10-17T06:44:57.266Z,22.51
2022-10-17T06:47:23.834Z,22.51
2022-10-17T06:49:50.815Z,22.53
2022-10-17T06:52:17.449Z,22.56
2022-10-17T06:54:44.477Z,22.58
2022-10-17T06:57:11.081Z,22.59
2022-10-17T06:59:38.247Z,22.61
2022-10-17T07:02:05.699Z,22.60
2022-10-17T07:04:32.609Z,22.59
2022-10-17T07:09:31.861Z,22.62
2022-10-17T07:11:58.926Z,22.61
2022-10-17T07:14:31.942Z,22.62
2022-10-17T07:16:59.504Z,22.61
2022-10-17T07:19:27.097Z,22.64
2022-10-17T07:21:54.218Z,22.64
2022-10-17T07:24:21.055Z,22.67
2022-10-17T07:26:47.620Z,22.65
2022-10-17T07:29:14.255Z,22.66
2022-10-17T07:31:40.901Z,22.66
2022-10-17T07:34:07.437Z,22.64
2022-10-17T07:36:34.021Z,22.66
2022-10-17T07:39:00.577Z,22.76
2022-10-17T07:41:27.823Z,22.90
2022-10-17T07:43:54.361Z,23.02
2022-10-17T07:46:20.959Z,23.19
2022-10-17T07:48:47.551Z,23.46
2022-10-17T07:51:14.133Z,23.66
2022-10-17T07:53:42.764Z,23.69
2022-10-17T07:56:13.045Z,23.77
2022-10-17T07:58:40.189Z,23.81
2022-10-17T08:01:14.729Z,23.88
2022-10-17T08:03:44.015Z,23.85
2022-10-17T08:06:10.648Z,23.93
2022-10-17T08:08:37.221Z,24.06
2022-10-17T08:11:07.654Z,24.03
2022-10-17T08:13:35.213Z,24.02
2022-10-17T08:16:04.282Z,24.08
2022-10-17T08:18:30.958Z,24.10
2022-10-17T08:21:01.403Z,24.11
2022-10-17T08:23:28.684Z,24.45
2022-10-17T08:25:55.359Z,24.89
2022-10-17T08:28:21.982Z,25.05
2022-10-17T08:30:48.756Z,25.28
2022-10-17T08:33:15.348Z,25.44
2022-10-17T08:35:42.085Z,25.60
2022-10-17T08:38:11.024Z,25.59
2022-10-17T08:40:42.818Z,25.64
2022-10-17T08:43:15.203Z,25.27
2022-10-17T08:45:52.036Z,24.64
2022-10-17T08:48:22.164Z,24.21
2022-10-17T08:50:56.604Z,23.78
2022-10-17T08:53:39.720Z,23.58
2022-10-17T08:56:24.884Z,23.43
2022-10-17T08:59:15.000Z,23.41
2022-10-17T09:01:47.655Z,23.35
2022-10-17T09:04:48.616Z,23.30
2022-10-17T09:07:27.607Z,23.32
2022-10-17T09:10:09.643Z,23.27
2022-10-17T09:13:01.767Z,23.19
2022-10-17T09:15:44.432Z,23.21
2022-10-17T09:18:27.045Z,23.30
2022-10-17T09:20:58.226Z,23.65
2022-10-17T09:23:42.519Z,25.02
2022-10-17T09:26:11.882Z,26.00
2022-10-17T09:28:41.508Z,25.55
2022-10-17T09:31:13.853Z,25.29
2022-10-17T09:33:57.657Z,25.94
2022-10-17T09:36:33.382Z,26.61
2022-10-17T09:39:22.778Z,27.06
2022-10-17T09:41:55.677Z,27.38
2022-10-17T09:44:34.187Z,28.28
2022-10-17T09:47:22.837Z,28.46
2022-10-17T09:49:50.912Z,28.51
2022-10-17T09:52:19.992Z,28.98
2022-10-17T09:54:49.959Z,27.28
2022-10-17T09:57:18.353Z,26.19
2022-10-17T10:00:00.626Z,26.04
2022-10-17T10:02:30.084Z,26.53
2022-10-17T10:05:06.731Z,27.28
2022-10-17T10:07:37.297Z,26.65
2022-10-17T10:10:22.786Z,26.98
2022-10-17T10:13:14.160Z,27.73
2022-10-17T10:15:43.105Z,27.63
2022-10-17T10:18:25.095Z,25.99
2022-10-17T10:21:19.584Z,25.39
2022-10-17T10:24:03.233Z,25.16
2022-10-17T10:26:58.310Z,24.84
2022-10-17T10:29:41.323Z,24.59
2022-10-17T10:32:11.960Z,24.35
2022-10-17T10:34:50.634Z,24.11
2022-10-17T10:37:23.607Z,24.30
2022-10-17T10:39:55.101Z,24.27
2022-10-17T10:42:29.721Z,24.32
2022-10-17T10:45:02.538Z,24.05
2022-10-17T10:47:30.933Z,23.98
2022-10-17T10:50:24.278Z,23.98
2022-10-17T10:53:23.500Z,24.11
2022-10-17T10:56:01.106Z,24.03
2022-10-17T10:58:49.004Z,24.07
2022-10-17T11:01:38.303Z,23.97
2022-10-17T11:04:42.487Z,23.98
2022-10-17T11:07:28.725Z,23.89
2022-10-17T11:10:13.899Z,23.91
2022-10-17T11:12:50.388Z,23.74
2022-10-17T11:15:40.222Z,23.76
2022-10-17T11:18:11.296Z,23.75
2022-10-17T11:21:00.759Z,23.68
2022-10-17T11:23:54.854Z,23.64
2022-10-17T11:26:50.583Z,23.58
2022-10-17T11:29:17.208Z,23.62
2022-10-17T11:31:50.453Z,23.53
2022-10-17T11:34:25.065Z,23.62
2022-10-17T11:36:56.975Z,23.47
2022-10-17T11:39:41.321Z,23.85
2022-10-17T11:42:14.511Z,23.71
2022-10-17T11:44:42.797Z,23.46
2022-10-17T11:47:36.501Z,23.34
2022-10-17T11:53:25.821Z,23.49
2022-10-17T11:55:54.582Z,23.67
2022-10-17T11:58:30.614Z,23.68
2022-10-17T12:01:12.333Z,23.58
2022-10-17T12:04:24.998Z,23.67
2022-10-17T12:07:20.020Z,24.16
2022-10-17T12:09:49.317Z,24.38
2022-10-17T12:12:31.377Z,25.25
2022-10-17T12:15:13.526Z,25.91
2022-10-17T12:18:03.845Z,25.76
2022-10-17T12:20:35.595Z,25.74
2022-10-17T12:23:10.946Z,25.83
2022-10-17T12:26:03.315Z,25.85
2022-10-17T12:28:33.863Z,25.92
2022-10-17T12:31:23.208Z,25.86
2022-10-17T12:33:52.783Z,26.06
2022-10-17T12:36:22.153Z,26.37
2022-10-17T12:38:51.057Z,26.27
2022-10-17T12:41:40.235Z,26.23
2022-10-17T12:44:12.982Z,26.16
2022-10-17T12:46:56.390Z,26.30
2022-10-17T12:49:24.500Z,26.47
2022-10-17T12:52:23.005Z,26.41
2022-10-17T12:55:14.508Z,26.17
2022-10-17T12:58:00.037Z,26.14
2022-10-17T13:01:22.566Z,26.21
2022-10-17T13:03:48.712Z,26.23
2022-10-17T13:06:22.048Z,26.00
2022-10-17T13:09:03.277Z,25.45
2022-10-17T13:11:34.701Z,25.27
2022-10-17T13:14:04.565Z,25.44
2022-10-17T13:16:34.351Z,25.77
2022-10-17T13:19:02.434Z,25.80
2022-10-17T13:21:29.958Z,25.86
2022-10-17T13:23:56.709Z,25.96
2022-10-17T13:26:26.330Z,25.78
2022-10-17T13:29:06.927Z,25.66
2022-10-17T13:31:39.312Z,25.64
2022-10-17T13:34:16.442Z,25.44
2022-10-17T13:36:48.715Z,25.27
2022-10-17T13:39:23.123Z,25.28
2022-10-17T13:41:59.530Z,25.06
2022-10-17T13:44:32.066Z,25.22
2022-10-17T13:46:58.855Z,25.41
2022-10-17T13:49:37.016Z,25.73
2022-10-17T13:52:06.218Z,25.80
2022-10-17T13:54:32.816Z,25.79
2022-10-17T13:57:00.299Z,25.71
2022-10-17T13:59:44.251Z,25.55
2022-10-17T14:02:26.302Z,25.61
2022-10-17T14:05:19.022Z,25.82
2022-10-17T14:08:11.388Z,25.96
2022-10-17T14:10:41.088Z,25.82
2022-10-17T14:13:17.696Z,25.86
2022-10-17T14:15:46.274Z,25.86
2022-10-17T14:18:21.462Z,25.95
2022-10-17T14:23:43.131Z,25.60
2022-10-17T14:26:22.217Z,25.41
2022-10-17T14:29:03.141Z,25.33
2022-10-17T14:31:35.193Z,25.21
2022-10-17T14:34:04.157Z,25.08
2022-10-17T14:36:44.255Z,25.19
2022-10-17T14:39:20.784Z,25.48
2022-10-17T14:41:48.151Z,25.66
2022-10-17T14:44:24.958Z,25.79
2022-10-17T14:46:57.922Z,25.94
2022-10-17T14:49:31.289Z,25.88
2022-10-17T14:52:18.530Z,25.76
2022-10-17T14:54:49.631Z,25.53
2022-10-17T14:57:34.812Z,25.25
2022-10-17T15:00:01.568Z,25.15
2022-10-17T15:02:30.274Z,25.01
2022-10-17T15:04:57.458Z,24.84
2022-10-17T15:07:24.271Z,24.77
2022-10-17T15:09:53.231Z,24.74
2022-10-17T15:12:25.244Z,24.68
2022-10-17T15:14:53.147Z,24.62
2022-10-17T15:17:25.848Z,24.47
2022-10-17T15:19:52.577Z,24.39
2022-10-17T15:22:19.472Z,24.36
2022-10-17T15:24:46.387Z,24.32
2022-10-17T15:27:24.139Z,24.25
2022-10-17T15:29:51.710Z,24.17
2022-10-17T15:32:18.451Z,24.16
2022-10-17T15:34:45.151Z,24.04
2022-10-17T15:37:20.913Z,24.00
2022-10-17T15:39:54.845Z,23.95
2022-10-17T15:42:23.447Z,23.95
2022-10-17T15:44:50.361Z,23.90
2022-10-17T15:47:23.444Z,23.92
2022-10-17T15:49:50.334Z,23.91
2022-10-17T15:52:16.953Z,23.91
2022-10-17T15:54:43.544Z,23.94
2022-10-17T15:57:18.623Z,23.88
2022-10-17T15:59:47.022Z,23.84
2022-10-17T16:02:15.165Z,23.76
2022-10-17T16:04:41.922Z,23.70
2022-10-17T16:07:08.558Z,23.73
2022-10-17T16:09:37.260Z,23.69
2022-10-17T16:12:11.802Z,23.64
2022-10-17T16:14:38.410Z,23.61
2022-10-17T16:17:05.157Z,23.56
2022-10-17T16:19:31.731Z,23.61
2022-10-17T16:22:03.668Z,23.63
2022-10-17T16:24:31.165Z,23.54
2022-10-17T16:26:57.997Z,23.51
2022-10-17T16:29:24.599Z,23.52
2022-10-17T16:31:51.249Z,23.52
2022-10-17T16:34:17.850Z,23.51
2022-10-17T16:36:44.422Z,23.48
2022-10-17T16:39:11.050Z,23.50
2022-10-17T16:41:39.534Z,23.53
2022-10-17T16:44:09.153Z,23.59
2022-10-17T16:46:37.755Z,23.63
2022-10-17T16:49:07.787Z,23.66
2022-10-17T16:51:35.878Z,23.70
2022-10-17T16:54:04.169Z,23.72
2022-10-17T16:56:32.682Z,23.73
2022-10-17T16:59:00.821Z,23.64
2022-10-17T17:01:31.063Z,23.63
2022-10-17T17:03:57.694Z,23.63
2022-10-17T17:06:27.343Z,23.57
2022-10-17T17:08:54.822Z,23.60
2022-10-17T17:11:23.284Z,23.57
2022-10-17T17:13:50.399Z,23.57
2022-10-17T17:16:22.342Z,23.56
2022-10-17T17:18:51.970Z,23.57
2022-10-17T17:21:18.561Z,23.54
2022-10-17T17:23:45.269Z,23.53
2022-10-17T17:26:22.228Z,23.51
2022-10-17T17:28:49.851Z,23.49
2022-10-17T17:31:19.787Z,23.51
2022-10-17T17:33:46.897Z,23.46
2022-10-17T17:36:19.158Z,23.46
2022-10-17T17:38:47.074Z,23.46
2022-10-17T17:41:18.664Z,23.43
2022-10-17T17:43:46.665Z,23.40
2022-10-17T17:46:16.479Z,23.45
2022-10-17T17:48:44.414Z,23.42
2022-10-17T17:51:13.223Z,23.42
2022-10-17T17:53:40.325Z,23.44
2022-10-17T17:56:08.378Z,23.40
2022-10-17T17:58:35.330Z,23.41
2022-10-17T18:01:08.934Z,23.42
2022-10-17T18:03:35.492Z,23.38
2022-10-17T18:06:02.058Z,23.40
2022-10-17T18:08:28.608Z,23.38
2022-10-17T18:10:56.480Z,23.38
2022-10-17T18:13:23.044Z,23.39
2022-10-17T18:15:51.891Z,23.39
2022-10-17T18:18:19.072Z,23.38
2022-10-17T18:20:45.666Z,23.37
2022-10-17T18:23:12.368Z,23.37
2022-10-17T18:25:39.003Z,23.38
2022-10-17T18:28:05.707Z,23.38
2022-10-17T18:30:34.421Z,23.34
2022-10-17T18:33:01.160Z,23.36
2022-10-17T18:35:27.905Z,23.31
2022-10-17T18:37:56.767Z,23.28
2022-10-17T18:40:23.436Z,23.31
2022-10-17T18:42:49.987Z,23.32
2022-10-17T18:45:17.421Z,23.34
2022-10-17T18:47:47.267Z,23.27
2022-10-17T18:50:14.791Z,23.31
2022-10-17T18:52:41.459Z,23.33
2022-10-17T18:55:08.584Z,23.28
2022-10-17T18:57:35.176Z,23.28
2022-10-17T19:00:01.754Z,23.26
2022-10-17T19:02:28.402Z,23.28
2022-10-17T19:04:54.978Z,23.25
2022-10-17T19:07:21.640Z,23.26
2022-10-17T19:09:48.603Z,23.26
2022-10-17T19:12:15.749Z,23.23
2022-10-17T19:18:28.753Z,23.27
2022-10-17T19:20:55.296Z,23.22
2022-10-17T19:23:21.823Z,23.22
2022-10-17T19:25:48.758Z,23.25
2022-10-17T19:28:15.309Z,23.28
2022-10-17T19:30:42.545Z,23.28
2022-10-17T19:33:09.053Z,23.31
2022-10-17T19:35:35.928Z,23.32
2022-10-17T19:38:02.443Z,23.35
2022-10-17T19:40:29.061Z,23.34
2022-10-17T19:42:55.568Z,23.34
2022-10-17T19:45:22.134Z,23.35
2022-10-17T19:47:48.661Z,23.35
2022-10-17T19:50:15.292Z,23.38
2022-10-17T19:52:41.804Z,23.34
2022-10-17T19:55:08.502Z,23.39
2022-10-17T19:57:36.483Z,23.38
2022-10-17T20:00:03.234Z,23.38
2022-10-17T20:02:29.938Z,23.37
2022-10-17T20:05:17.064Z,23.34
2022-10-17T20:07:43.414Z,23.35
2022-10-17T20:10:09.974Z,23.37
2022-10-17T20:12:36.634Z,23.36
2022-10-17T20:15:03.481Z,23.37
2022-10-17T20:17:30.278Z,23.35
2022-10-17T20:19:56.924Z,23.34
2022-10-17T20:22:23.520Z,23.36
2022-10-17T20:24:50.084Z,23.34
2022-10-17T20:27:16.725Z,23.34
2022-10-17T20:29:43.272Z,23.36
2022-10-17T20:32:09.816Z,23.37
2022-10-17T20:34:36.853Z,23.35
2022-10-17T20:37:03.595Z,23.33
2022-10-17T20:39:30.278Z,23.32
2022-10-17T20:41:57.020Z,23.32
2022-10-17T20:44:23.681Z,23.33
2022-10-17T20:47:01.028Z,23.32
2022-10-17T20:49:28.996Z,23.34
2022-10-17T20:51:55.939Z,23.36
2022-10-17T20:54:22.552Z,23.33
2022-10-17T20:56:49.387Z,23.31
2022-10-17T20:59:17.512Z,23.32
2022-10-17T21:01:45.213Z,23.34
2022-10-17T21:04:45.526Z,23.32
2022-10-17T21:06:59.332Z,23.34
2022-10-17T21:09:26.230Z,23.34
2022-10-17T21:11:55.621Z,23.36
2022-10-17T21:14:24.119Z,23.32
2022-10-17T21:16:52.221Z,23.33
2022-10-17T21:19:18.989Z,23.30
2022-10-17T21:21:46.319Z,23.29
2022-10-17T21:24:17.355Z,23.29
2022-10-17T21:26:45.444Z,23.27
2022-10-17T21:29:13.817Z,23.28
2022-10-17T21:31:43.280Z,23.24
2022-10-17T21:34:15.067Z,23.20
2022-10-17T21:36:41.852Z,23.20
2022-10-17T21:41:40.584Z,23.24
2022-10-17T21:44:13.499Z,23.19
2022-10-17T21:46:40.230Z,23.18
2022-10-17T21:49:06.793Z,23.18
2022-10-17T21:51:33.365Z,23.18
2022-10-17T21:53:59.966Z,23.19
2022-10-17T21:56:28.672Z,23.20
2022-10-17T21:58:55.836Z,23.18
2022-10-17T22:01:25.388Z,23.18
2022-10-17T22:03:56.280Z,23.18
2022-10-17T22:06:39.254Z,23.17
2022-10-17T22:09:11.368Z,23.19
2022-10-17T22:11:38.363Z,23.16
2022-10-17T22:14:08.284Z,23.11
2022-10-17T22:16:35.234Z,23.14
2022-10-17T22:19:06.209Z,23.14
2022-10-17T22:21:35.009Z,23.14
2022-10-17T22:24:05.630Z,23.14
2022-10-17T22:26:33.945Z,23.14
2022-10-17T22:29:00.972Z,23.11
2022-10-17T22:31:27.854Z,23.13
2022-10-17T22:33:54.433Z,23.14
2022-10-17T22:36:21.161Z,23.16
2022-10-17T22:38:47.752Z,23.13
2022-10-17T22:41:14.323Z,23.14
2022-10-17T22:43:40.923Z,23.15
2022-10-17T22:46:07.780Z,23.14
2022-10-17T22:48:34.907Z,23.13
2022-10-17T22:51:02.183Z,23.12
2022-10-17T22:53:29.806Z,23.13
2022-10-17T22:56:02.104Z,23.20
2022-10-17T22:58:31.017Z,23.22
2022-10-17T23:00:58.032Z,23.22
2022-10-17T23:03:26.686Z,23.20
2022-10-17T23:05:53.572Z,23.23
2022-10-17T23:08:20.410Z,23.23
2022-10-17T23:10:47.737Z,23.24
2022-10-17T23:13:14.941Z,23.24
2022-10-17T23:15:42.124Z,23.24
2022-10-17T23:18:09.858Z,23.31
2022-10-17T23:20:37.668Z,23.32
2022-10-17T23:23:04.723Z,23.33
2022-10-17T23:25:33.778Z,23.32
2022-10-17T23:28:00.839Z,23.36
2022-10-17T23:30:27.499Z,23.32
2022-10-17T23:32:54.054Z,23.34
2022-10-17T23:35:20.634Z,23.34
2022-10-17T23:37:47.192Z,23.33
2022-10-17T23:40:13.849Z,23.34
2022-10-17T23:42:40.419Z,23.36
2022-10-17T23:45:07.779Z,23.37
2022-10-17T23:47:34.395Z,23.37
2022-10-17T23:50:01.115Z,23.36
2022-10-17T23:52:27.689Z,23.36
2022-10-17T23:54:54.246Z,23.35
2022-10-17T23:57:20.848Z,23.34
2022-10-17T23:59:47.451Z,23.35
